sensor_id;sensor_type;location;lat;lon;timestamp;pressure;altitude;pressure_sealevel;temperature;humidity
56831;BME280;42713;42.676;23.352;2023-04-24T00:02:22;94522.66;;;14.05;48.44
56831;BME280;42713;42.676;23.352;2023-04-24T00:04:48;94531.09;;;14.01;48.58
56831;BME280;42713;42.676;23.352;2023-04-24T00:07:14;94530.56;;;13.99;48.24
56831;BME280;42713;42.676;23.352;2023-04-24T00:09:42;94519.25;;;13.99;47.98
56831;BME280;42713;42.676;23.352;2023-04-24T00:12:08;94513.47;;;13.97;48.49
56831;BME280;42713;42.676;23.352;2023-04-24T00:14:34;94519.00;;;13.95;47.91
56831;BME280;42713;42.676;23.352;2023-04-24T00:17:00;94510.31;;;13.90;47.67
56831;BME280;42713;42.676;23.352;2023-04-24T00:19:27;94505.59;;;13.87;49.16
56831;BME280;42713;42.676;23.352;2023-04-24T00:21:53;94506.91;;;13.79;48.59
56831;BME280;42713;42.676;23.352;2023-04-24T00:24:19;94506.66;;;13.75;48.33
56831;BME280;42713;42.676;23.352;2023-04-24T00:26:45;94500.88;;;13.73;48.00
56831;BME280;42713;42.676;23.352;2023-04-24T00:29:10;94504.31;;;13.68;48.13
56831;BME280;42713;42.676;23.352;2023-04-24T00:31:36;94510.66;;;13.62;47.79
56831;BME280;42713;42.676;23.352;2023-04-24T00:34:02;94509.09;;;13.56;47.98
56831;BME280;42713;42.676;23.352;2023-04-24T00:36:27;94508.03;;;13.52;48.06
56831;BME280;42713;42.676;23.352;2023-04-24T00:38:55;94501.19;;;13.51;48.10
56831;BME280;42713;42.676;23.352;2023-04-24T00:41:21;94507.25;;;13.51;48.42
56831;BME280;42713;42.676;23.352;2023-04-24T00:43:47;94509.88;;;13.46;48.47
56831;BME280;42713;42.676;23.352;2023-04-24T00:46:13;94505.41;;;13.42;47.96
56831;BME280;42713;42.676;23.352;2023-04-24T00:48:39;94503.56;;;13.32;48.28
56831;BME280;42713;42.676;23.352;2023-04-24T00:51:06;94504.09;;;13.29;49.21
56831;BME280;42713;42.676;23.352;2023-04-24T00:53:31;94501.44;;;13.23;48.76
56831;BME280;42713;42.676;23.352;2023-04-24T00:55:58;94503.56;;;13.21;49.27
56831;BME280;42713;42.676;23.352;2023-04-24T00:58:24;94508.56;;;13.23;49.15
56831;BME280;42713;42.676;23.352;2023-04-24T01:00:50;94504.09;;;13.18;50.40
56831;BME280;42713;42.676;23.352;2023-04-24T01:03:20;94509.88;;;13.20;50.26
56831;BME280;42713;42.676;23.352;2023-04-24T01:05:47;94508.53;;;13.18;50.14
56831;BME280;42713;42.676;23.352;2023-04-24T01:08:13;94500.41;;;13.19;49.12
56831;BME280;42713;42.676;23.352;2023-04-24T01:10:40;94496.19;;;13.13;49.75
56831;BME280;42713;42.676;23.352;2023-04-24T01:13:08;94493.56;;;13.13;50.00
56831;BME280;42713;42.676;23.352;2023-04-24T01:15:34;94497.53;;;13.16;50.98
56831;BME280;42713;42.676;23.352;2023-04-24T01:17:59;94495.94;;;13.15;50.84
56831;BME280;42713;42.676;23.352;2023-04-24T01:20:25;94486.75;;;13.12;51.14
56831;BME280;42713;42.676;23.352;2023-04-24T01:22:51;94482.78;;;13.10;52.84
56831;BME280;42713;42.676;23.352;2023-04-24T01:25:17;94482.78;;;13.10;53.07
56831;BME280;42713;42.676;23.352;2023-04-24T01:27:42;94486.72;;;13.07;52.91
56831;BME280;42713;42.676;23.352;2023-04-24T01:30:09;94479.13;;;13.05;52.99
56831;BME280;42713;42.676;23.352;2023-04-24T01:32:36;94467.53;;;13.01;53.44
56831;BME280;42713;42.676;23.352;2023-04-24T01:35:02;94465.94;;;13.00;53.07
56831;BME280;42713;42.676;23.352;2023-04-24T01:37:28;94467.28;;;12.92;51.92
56831;BME280;42713;42.676;23.352;2023-04-24T01:39:53;94472.25;;;12.89;52.37
56831;BME280;42713;42.676;23.352;2023-04-24T01:42:19;94461.22;;;12.82;52.82
56831;BME280;42713;42.676;23.352;2023-04-24T01:44:44;94465.44;;;12.83;51.68
56831;BME280;42713;42.676;23.352;2023-04-24T01:47:10;94465.94;;;12.80;52.42
56831;BME280;42713;42.676;23.352;2023-04-24T01:49:38;94461.75;;;12.79;52.46
56831;BME280;42713;42.676;23.352;2023-04-24T01:52:04;94461.22;;;12.71;52.96
56831;BME280;42713;42.676;23.352;2023-04-24T01:54:29;94462.03;;;12.72;51.89
56831;BME280;42713;42.676;23.352;2023-04-24T01:56:55;94462.00;;;12.67;52.04
56831;BME280;42713;42.676;23.352;2023-04-24T01:59:21;94458.59;;;12.66;52.35
56831;BME280;42713;42.676;23.352;2023-04-24T02:01:48;94456.47;;;12.63;51.87
56831;BME280;42713;42.676;23.352;2023-04-24T02:04:14;94460.94;;;12.57;52.04
56831;BME280;42713;42.676;23.352;2023-04-24T02:06:40;94454.63;;;12.48;52.72
56831;BME280;42713;42.676;23.352;2023-04-24T02:09:06;94456.97;;;12.50;52.96
56831;BME280;42713;42.676;23.352;2023-04-24T02:11:31;94461.19;;;12.45;53.00
56831;BME280;42713;42.676;23.352;2023-04-24T02:13:57;94455.91;;;12.40;52.90
56831;BME280;42713;42.676;23.352;2023-04-24T02:16:22;94459.31;;;12.36;53.74
56831;BME280;42713;42.676;23.352;2023-04-24T02:18:48;94454.03;;;12.25;52.79
56831;BME280;42713;42.676;23.352;2023-04-24T02:21:13;94459.06;;;12.27;53.39
56831;BME280;42713;42.676;23.352;2023-04-24T02:23:39;94452.19;;;12.21;52.08
56831;BME280;42713;42.676;23.352;2023-04-24T02:26:04;94461.09;;;12.09;54.75
56831;BME280;42713;42.676;23.352;2023-04-24T02:28:30;94457.94;;;12.07;52.67
56831;BME280;42713;42.676;23.352;2023-04-24T02:30:55;94455.00;;;11.98;52.23
56831;BME280;42713;42.676;23.352;2023-04-24T02:33:21;94459.97;;;11.90;52.76
56831;BME280;42713;42.676;23.352;2023-04-24T02:35:46;94455.13;;;11.71;53.79
56831;BME280;42713;42.676;23.352;2023-04-24T02:38:11;94448.28;;;11.65;55.18
56831;BME280;42713;42.676;23.352;2023-04-24T02:40:37;94439.59;;;11.59;54.89
56831;BME280;42713;42.676;23.352;2023-04-24T02:43:02;94443.31;;;11.63;55.29
56831;BME280;42713;42.676;23.352;2023-04-24T02:45:28;94429.63;;;11.56;56.01
56831;BME280;42713;42.676;23.352;2023-04-24T02:47:53;94427.03;;;11.61;55.52
56831;BME280;42713;42.676;23.352;2023-04-24T02:50:19;94433.59;;;11.64;55.72
56831;BME280;42713;42.676;23.352;2023-04-24T02:52:44;94429.38;;;11.63;54.56
56831;BME280;42713;42.676;23.352;2023-04-24T02:55:10;94428.88;;;11.66;55.12
56831;BME280;42713;42.676;23.352;2023-04-24T02:57:35;94432.53;;;11.65;54.96
56831;BME280;42713;42.676;23.352;2023-04-24T03:00:01;94437.53;;;11.66;55.88
56831;BME280;42713;42.676;23.352;2023-04-24T03:02:26;94435.44;;;11.63;55.58
56831;BME280;42713;42.676;23.352;2023-04-24T03:04:51;94433.06;;;11.62;55.75
56831;BME280;42713;42.676;23.352;2023-04-24T03:07:17;94439.09;;;11.62;55.37
56831;BME280;42713;42.676;23.352;2023-04-24T03:09:46;94442.50;;;11.63;55.75
56831;BME280;42713;42.676;23.352;2023-04-24T03:12:11;94442.50;;;11.58;56.10
56831;BME280;42713;42.676;23.352;2023-04-24T03:14:36;94442.22;;;11.54;56.59
56831;BME280;42713;42.676;23.352;2023-04-24T03:17:02;94446.13;;;11.51;55.67
56831;BME280;42713;42.676;23.352;2023-04-24T03:19:27;94439.81;;;11.52;55.77
56831;BME280;42713;42.676;23.352;2023-04-24T03:21:53;94442.22;;;11.59;55.57
56831;BME280;42713;42.676;23.352;2023-04-24T03:24:18;94440.91;;;11.57;56.38
56831;BME280;42713;42.676;23.352;2023-04-24T03:26:44;94441.69;;;11.57;55.36
56831;BME280;42713;42.676;23.352;2023-04-24T03:29:10;94447.25;;;11.61;55.21
56831;BME280;42713;42.676;23.352;2023-04-24T03:31:36;94450.84;;;11.55;55.16
56831;BME280;42713;42.676;23.352;2023-04-24T03:34:01;94452.72;;;11.54;55.67
56831;BME280;42713;42.676;23.352;2023-04-24T03:36:26;94444.31;;;11.57;54.92
56831;BME280;42713;42.676;23.352;2023-04-24T03:38:52;94443.28;;;11.58;54.23
56831;BME280;42713;42.676;23.352;2023-04-24T03:41:18;94453.53;;;11.60;55.26
56831;BME280;42713;42.676;23.352;2023-04-24T03:43:44;94447.75;;;11.63;54.01
56831;BME280;42713;42.676;23.352;2023-04-24T03:46:09;94446.72;;;11.64;54.78
56831;BME280;42713;42.676;23.352;2023-04-24T03:48:35;94445.41;;;11.66;54.64
56831;BME280;42713;42.676;23.352;2023-04-24T03:51:00;94444.09;;;11.64;54.80
56831;BME280;42713;42.676;23.352;2023-04-24T03:53:26;94451.94;;;11.64;54.84
56831;BME280;42713;42.676;23.352;2023-04-24T03:55:52;94448.00;;;11.61;54.27
56831;BME280;42713;42.676;23.352;2023-04-24T03:58:18;94446.97;;;11.62;55.43
56831;BME280;42713;42.676;23.352;2023-04-24T04:00:44;94442.00;;;11.61;54.88
56831;BME280;42713;42.676;23.352;2023-04-24T04:03:09;94454.31;;;11.60;55.35
56831;BME280;42713;42.676;23.352;2023-04-24T04:05:35;94447.97;;;11.56;55.10
56831;BME280;42713;42.676;23.352;2023-04-24T04:08:00;94451.91;;;11.53;55.26
56831;BME280;42713;42.676;23.352;2023-04-24T04:10:26;94446.41;;;11.55;55.16
56831;BME280;42713;42.676;23.352;2023-04-24T04:12:51;94460.09;;;11.62;54.46
56831;BME280;42713;42.676;23.352;2023-04-24T04:15:17;94447.47;;;11.59;55.36
56831;BME280;42713;42.676;23.352;2023-04-24T04:17:45;94454.03;;;11.62;54.39
56831;BME280;42713;42.676;23.352;2023-04-24T04:20:11;94453.81;;;11.63;55.36
56831;BME280;42713;42.676;23.352;2023-04-24T04:22:37;94454.34;;;11.65;55.57
56831;BME280;42713;42.676;23.352;2023-04-24T04:25:03;94457.47;;;11.67;54.73
56831;BME280;42713;42.676;23.352;2023-04-24T04:27:29;94452.50;;;11.71;54.89
56831;BME280;42713;42.676;23.352;2023-04-24T04:30:00;94459.34;;;11.72;55.35
56831;BME280;42713;42.676;23.352;2023-04-24T04:32:33;94461.72;;;11.74;55.38
56831;BME280;42713;42.676;23.352;2023-04-24T04:35:00;94463.56;;;11.78;55.02
56831;BME280;42713;42.676;23.352;2023-04-24T04:37:34;94459.38;;;11.82;55.88
56831;BME280;42713;42.676;23.352;2023-04-24T04:40:00;94462.00;;;11.82;55.63
56831;BME280;42713;42.676;23.352;2023-04-24T04:42:26;94459.91;;;11.79;56.63
56831;BME280;42713;42.676;23.352;2023-04-24T04:44:54;94467.00;;;11.84;57.83
56831;BME280;42713;42.676;23.352;2023-04-24T04:47:22;94476.72;;;11.83;56.39
56831;BME280;42713;42.676;23.352;2023-04-24T04:49:48;94478.56;;;11.88;55.63
56831;BME280;42713;42.676;23.352;2023-04-24T04:52:14;94480.41;;;11.93;54.82
56831;BME280;42713;42.676;23.352;2023-04-24T04:54:40;94481.22;;;11.93;54.05
56831;BME280;42713;42.676;23.352;2023-04-24T04:57:05;94489.13;;;11.98;53.77
56831;BME280;42713;42.676;23.352;2023-04-24T04:59:31;94487.81;;;12.01;54.15
56831;BME280;42713;42.676;23.352;2023-04-24T05:01:56;94491.78;;;12.04;53.89
56831;BME280;42713;42.676;23.352;2023-04-24T05:04:22;94486.00;;;12.02;53.53
56831;BME280;42713;42.676;23.352;2023-04-24T05:06:47;94490.22;;;12.03;52.67
56831;BME280;42713;42.676;23.352;2023-04-24T05:09:13;94488.09;;;11.99;53.22
56831;BME280;42713;42.676;23.352;2023-04-24T05:11:38;94490.72;;;11.99;53.38
56831;BME280;42713;42.676;23.352;2023-04-24T05:14:03;94480.75;;;12.02;53.10
56831;BME280;42713;42.676;23.352;2023-04-24T05:16:29;94489.69;;;12.06;53.24
56831;BME280;42713;42.676;23.352;2023-04-24T05:18:56;94477.09;;;12.08;53.96
56831;BME280;42713;42.676;23.352;2023-04-24T05:21:21;94487.34;;;12.09;52.57
56831;BME280;42713;42.676;23.352;2023-04-24T05:23:46;94479.50;;;12.14;53.37
56831;BME280;42713;42.676;23.352;2023-04-24T05:26:13;94487.38;;;12.14;53.19
56831;BME280;42713;42.676;23.352;2023-04-24T05:28:39;94489.22;;;12.19;53.07
56831;BME280;42713;42.676;23.352;2023-04-24T05:31:04;94483.47;;;12.22;52.63
56831;BME280;42713;42.676;23.352;2023-04-24T05:33:29;94480.28;;;12.25;52.79
56831;BME280;42713;42.676;23.352;2023-04-24T05:35:55;94485.03;;;12.28;52.71
56831;BME280;42713;42.676;23.352;2023-04-24T05:38:21;94484.53;;;12.32;52.89
56831;BME280;42713;42.676;23.352;2023-04-24T05:40:46;94482.19;;;12.35;53.10
56831;BME280;42713;42.676;23.352;2023-04-24T05:43:12;94479.03;;;12.38;53.64
56831;BME280;42713;42.676;23.352;2023-04-24T05:45:38;94485.59;;;12.41;52.97
56831;BME280;42713;42.676;23.352;2023-04-24T05:48:03;94491.91;;;12.40;52.59
56831;BME280;42713;42.676;23.352;2023-04-24T05:50:29;94488.78;;;12.43;53.37
56831;BME280;42713;42.676;23.352;2023-04-24T05:52:55;94488.78;;;12.43;52.43
56831;BME280;42713;42.676;23.352;2023-04-24T05:55:26;94482.97;;;12.46;54.10
56831;BME280;42713;42.676;23.352;2023-04-24T05:57:52;94489.31;;;12.50;53.89
56831;BME280;42713;42.676;23.352;2023-04-24T06:00:18;94480.66;;;12.55;53.62
56831;BME280;42713;42.676;23.352;2023-04-24T06:02:45;94488.78;;;12.58;54.20
56831;BME280;42713;42.676;23.352;2023-04-24T06:05:11;94489.06;;;12.62;53.72
56831;BME280;42713;42.676;23.352;2023-04-24T06:07:37;94482.22;;;12.61;53.83
56831;BME280;42713;42.676;23.352;2023-04-24T06:10:02;94485.91;;;12.65;53.45
56831;BME280;42713;42.676;23.352;2023-04-24T06:12:28;94485.41;;;12.68;53.40
56831;BME280;42713;42.676;23.352;2023-04-24T06:14:53;94483.28;;;12.70;53.85
56831;BME280;42713;42.676;23.352;2023-04-24T06:17:20;94485.41;;;12.73;53.31
56831;BME280;42713;42.676;23.352;2023-04-24T06:19:46;94484.63;;;12.73;52.80
56831;BME280;42713;42.676;23.352;2023-04-24T06:22:12;94487.50;;;12.71;52.75
56831;BME280;42713;42.676;23.352;2023-04-24T06:24:41;94484.09;;;12.76;52.99
56831;BME280;42713;42.676;23.352;2023-04-24T06:27:06;94488.31;;;12.82;53.40
56831;BME280;42713;42.676;23.352;2023-04-24T06:29:33;94484.63;;;12.83;52.16
56831;BME280;42713;42.676;23.352;2023-04-24T06:31:58;94487.25;;;12.83;52.36
56831;BME280;42713;42.676;23.352;2023-04-24T06:34:24;94486.47;;;12.88;51.86
56831;BME280;42713;42.676;23.352;2023-04-24T06:36:49;94479.63;;;12.92;52.19
56831;BME280;42713;42.676;23.352;2023-04-24T06:39:15;94480.16;;;12.94;52.64
56831;BME280;42713;42.676;23.352;2023-04-24T06:41:40;94471.75;;;12.92;51.76
56831;BME280;42713;42.676;23.352;2023-04-24T06:44:06;94489.63;;;12.95;51.96
56831;BME280;42713;42.676;23.352;2023-04-24T06:46:31;94493.06;;;13.01;52.52
56831;BME280;42713;42.676;23.352;2023-04-24T06:48:57;94483.56;;;13.05;52.67
56831;BME280;42713;42.676;23.352;2023-04-24T06:51:23;94489.88;;;13.14;52.85
56831;BME280;42713;42.676;23.352;2023-04-24T06:53:49;94485.66;;;13.23;52.77
56831;BME280;42713;42.676;23.352;2023-04-24T06:56:15;94493.28;;;13.30;52.50
56831;BME280;42713;42.676;23.352;2023-04-24T06:58:41;94492.50;;;13.14;51.62
56831;BME280;42713;42.676;23.352;2023-04-24T07:01:07;94478.06;;;13.12;51.71
56831;BME280;42713;42.676;23.352;2023-04-24T07:03:35;94475.94;;;13.14;51.68
56831;BME280;42713;42.676;23.352;2023-04-24T07:06:00;94480.69;;;13.17;52.33
56831;BME280;42713;42.676;23.352;2023-04-24T07:08:26;94477.50;;;13.20;52.14
56831;BME280;42713;42.676;23.352;2023-04-24T07:10:51;94479.34;;;13.24;52.05
56831;BME280;42713;42.676;23.352;2023-04-24T07:13:17;94472.25;;;13.30;52.06
56831;BME280;42713;42.676;23.352;2023-04-24T07:15:43;94473.31;;;13.34;52.23
56831;BME280;42713;42.676;23.352;2023-04-24T07:18:08;94465.66;;;13.38;52.46
56831;BME280;42713;42.676;23.352;2023-04-24T07:20:34;94474.63;;;13.47;51.69
56831;BME280;42713;42.676;23.352;2023-04-24T07:23:00;94467.50;;;13.53;51.81
56831;BME280;42713;42.676;23.352;2023-04-24T07:25:25;94479.06;;;13.62;52.19
56831;BME280;42713;42.676;23.352;2023-04-24T07:27:51;94468.50;;;13.67;52.20
56831;BME280;42713;42.676;23.352;2023-04-24T07:30:17;94466.41;;;13.75;52.08
56831;BME280;42713;42.676;23.352;2023-04-24T07:32:42;94464.28;;;13.82;51.60
56831;BME280;42713;42.676;23.352;2023-04-24T07:35:09;94464.25;;;13.87;51.50
56831;BME280;42713;42.676;23.352;2023-04-24T07:37:35;94456.63;;;13.91;51.30
56831;BME280;42713;42.676;23.352;2023-04-24T07:40:00;94459.22;;;13.96;51.72
56831;BME280;42713;42.676;23.352;2023-04-24T07:42:26;94449.47;;;14.01;51.07
56831;BME280;42713;42.676;23.352;2023-04-24T07:44:51;94449.69;;;14.05;51.10
56831;BME280;42713;42.676;23.352;2023-04-24T07:47:17;94452.56;;;14.09;50.34
56831;BME280;42713;42.676;23.352;2023-04-24T07:49:42;94447.31;;;14.09;49.99
56831;BME280;42713;42.676;23.352;2023-04-24T07:52:08;94443.88;;;14.13;50.51
56831;BME280;42713;42.676;23.352;2023-04-24T07:54:34;94449.38;;;14.17;51.08
56831;BME280;42713;42.676;23.352;2023-04-24T07:56:59;94440.94;;;14.25;50.88
56831;BME280;42713;42.676;23.352;2023-04-24T07:59:25;94439.31;;;14.29;51.24
56831;BME280;42713;42.676;23.352;2023-04-24T08:01:51;94439.28;;;14.35;50.89
56831;BME280;42713;42.676;23.352;2023-04-24T08:04:18;94433.47;;;14.38;50.32
56831;BME280;42713;42.676;23.352;2023-04-24T08:06:43;94438.19;;;14.41;50.39
56831;BME280;42713;42.676;23.352;2023-04-24T08:09:09;94438.94;;;14.46;50.23
56831;BME280;42713;42.676;23.352;2023-04-24T08:11:34;94434.75;;;14.45;50.44
56831;BME280;42713;42.676;23.352;2023-04-24T08:14:00;94433.09;;;14.55;50.39
56831;BME280;42713;42.676;23.352;2023-04-24T08:16:26;94436.72;;;14.64;50.20
56831;BME280;42713;42.676;23.352;2023-04-24T08:18:52;94432.22;;;14.70;50.57
56831;BME280;42713;42.676;23.352;2023-04-24T08:21:18;94423.44;;;14.79;50.34
56831;BME280;42713;42.676;23.352;2023-04-24T08:23:44;94428.41;;;14.86;49.87
56831;BME280;42713;42.676;23.352;2023-04-24T08:26:11;94427.56;;;14.91;49.43
56831;BME280;42713;42.676;23.352;2023-04-24T08:28:37;94417.25;;;14.94;49.10
56831;BME280;42713;42.676;23.352;2023-04-24T08:31:03;94411.97;;;15.00;49.36
56831;BME280;42713;42.676;23.352;2023-04-24T08:33:28;94416.91;;;15.06;49.04
56831;BME280;42713;42.676;23.352;2023-04-24T08:35:59;94417.09;;;15.15;49.40
56831;BME280;42713;42.676;23.352;2023-04-24T08:38:25;94415.25;;;15.16;50.66
56831;BME280;42713;42.676;23.352;2023-04-24T08:40:51;94412.28;;;15.22;50.17
56831;BME280;42713;42.676;23.352;2023-04-24T08:43:17;94408.00;;;15.27;48.76
56831;BME280;42713;42.676;23.352;2023-04-24T08:45:43;94406.72;;;15.24;49.58
56831;BME280;42713;42.676;23.352;2023-04-24T08:48:09;94397.13;;;15.33;49.78
56831;BME280;42713;42.676;23.352;2023-04-24T08:50:35;94388.66;;;15.36;48.00
56831;BME280;42713;42.676;23.352;2023-04-24T08:53:02;94392.06;;;15.37;48.74
56831;BME280;42713;42.676;23.352;2023-04-24T08:55:29;94396.22;;;15.43;48.55
56831;BME280;42713;42.676;23.352;2023-04-24T08:57:56;94391.13;;;15.52;48.19
56831;BME280;42713;42.676;23.352;2023-04-24T09:00:22;94386.03;;;15.61;47.49
56831;BME280;42713;42.676;23.352;2023-04-24T09:02:49;94388.06;;;15.64;46.98
56831;BME280;42713;42.676;23.352;2023-04-24T09:05:16;94379.25;;;15.74;47.26
56831;BME280;42713;42.676;23.352;2023-04-24T09:07:45;94382.63;;;15.79;46.80
56831;BME280;42713;42.676;23.352;2023-04-24T09:10:14;94379.38;;;15.87;47.01
56831;BME280;42713;42.676;23.352;2023-04-24T09:12:41;94375.03;;;15.97;47.13
56831;BME280;42713;42.676;23.352;2023-04-24T09:15:07;94363.53;;;16.07;47.12
56831;BME280;42713;42.676;23.352;2023-04-24T09:17:33;94368.91;;;16.21;46.78
56831;BME280;42713;42.676;23.352;2023-04-24T09:20:00;94368.13;;;16.39;46.06
56831;BME280;42713;42.676;23.352;2023-04-24T09:22:30;94358.53;;;16.43;46.11
56831;BME280;42713;42.676;23.352;2023-04-24T09:25:03;94355.72;;;16.54;45.38
56831;BME280;42713;42.676;23.352;2023-04-24T09:27:31;94354.09;;;16.58;45.22
56831;BME280;42713;42.676;23.352;2023-04-24T09:29:58;94340.78;;;16.63;44.76
56831;BME280;42713;42.676;23.352;2023-04-24T09:32:24;94342.84;;;16.66;44.78
56831;BME280;42713;42.676;23.352;2023-04-24T09:35:11;94336.19;;;16.69;44.01
56831;BME280;42713;42.676;23.352;2023-04-24T09:37:39;94334.63;;;16.68;43.88
56831;BME280;42713;42.676;23.352;2023-04-24T09:40:08;94335.91;;;16.70;44.38
56831;BME280;42713;42.676;23.352;2023-04-24T09:42:34;94334.94;;;16.80;45.03
56831;BME280;42713;42.676;23.352;2023-04-24T09:44:59;94334.28;;;16.88;44.73
56831;BME280;42713;42.676;23.352;2023-04-24T09:47:25;94329.97;;;16.92;45.06
56831;BME280;42713;42.676;23.352;2023-04-24T09:49:50;94336.28;;;16.96;45.40
56831;BME280;42713;42.676;23.352;2023-04-24T09:52:16;94333.34;;;16.98;44.65
56831;BME280;42713;42.676;23.352;2023-04-24T09:54:41;94336.69;;;17.04;44.23
56831;BME280;42713;42.676;23.352;2023-04-24T09:57:10;94328.47;;;17.05;43.45
56831;BME280;42713;42.676;23.352;2023-04-24T09:59:41;94322.59;;;17.08;43.06
56831;BME280;42713;42.676;23.352;2023-04-24T10:02:17;94309.25;;;17.14;43.95
56831;BME280;42713;42.676;23.352;2023-04-24T10:04:54;94305.91;;;17.22;44.27
56831;BME280;42713;42.676;23.352;2023-04-24T10:07:20;94310.31;;;17.26;43.55
56831;BME280;42713;42.676;23.352;2023-04-24T10:09:46;94305.63;;;17.37;43.54
56831;BME280;42713;42.676;23.352;2023-04-24T10:12:12;94301.78;;;17.43;43.90
56831;BME280;42713;42.676;23.352;2023-04-24T10:14:38;94296.38;;;17.49;43.26
56831;BME280;42713;42.676;23.352;2023-04-24T10:17:05;94289.03;;;17.60;42.71
56831;BME280;42713;42.676;23.352;2023-04-24T10:19:31;94285.19;;;17.66;42.68
56831;BME280;42713;42.676;23.352;2023-04-24T10:21:58;94286.03;;;17.75;43.27
56831;BME280;42713;42.676;23.352;2023-04-24T10:24:24;94273.97;;;17.83;42.11
56831;BME280;42713;42.676;23.352;2023-04-24T10:26:50;94277.28;;;17.88;42.17
56831;BME280;42713;42.676;23.352;2023-04-24T10:29:17;94274.44;;;17.99;41.79
56831;BME280;42713;42.676;23.352;2023-04-24T10:31:43;94272.34;;;18.10;41.64
56831;BME280;42713;42.676;23.352;2023-04-24T10:34:14;94270.84;;;18.17;41.85
56831;BME280;42713;42.676;23.352;2023-04-24T10:36:43;94264.50;;;18.27;41.45
56831;BME280;42713;42.676;23.352;2023-04-24T10:39:13;94267.69;;;18.38;41.77
56831;BME280;42713;42.676;23.352;2023-04-24T10:41:40;94254.84;;;18.54;41.10
56831;BME280;42713;42.676;23.352;2023-04-24T10:44:13;94256.63;;;18.67;40.96
56831;BME280;42713;42.676;23.352;2023-04-24T10:46:45;94250.41;;;18.72;40.17
56831;BME280;42713;42.676;23.352;2023-04-24T10:49:11;94256.34;;;18.69;40.39
56831;BME280;42713;42.676;23.352;2023-04-24T10:51:53;94243.09;;;18.78;39.70
56831;BME280;42713;42.676;23.352;2023-04-24T10:54:24;94240.06;;;18.93;39.39
56831;BME280;42713;42.676;23.352;2023-04-24T10:56:50;94234.94;;;18.97;38.20
56831;BME280;42713;42.676;23.352;2023-04-24T10:59:35;94230.13;;;19.08;38.19
56831;BME280;42713;42.676;23.352;2023-04-24T11:02:06;94225.63;;;19.17;37.70
56831;BME280;42713;42.676;23.352;2023-04-24T11:04:33;94221.88;;;19.18;37.86
56831;BME280;42713;42.676;23.352;2023-04-24T11:07:01;94224.97;;;19.11;38.07
56831;BME280;42713;42.676;23.352;2023-04-24T11:09:28;94223.41;;;19.02;37.71
56831;BME280;42713;42.676;23.352;2023-04-24T11:12:08;94218.69;;;18.98;37.28
56831;BME280;42713;42.676;23.352;2023-04-24T11:17:30;94213.13;;;18.77;38.27
56831;BME280;42713;42.676;23.352;2023-04-24T11:20:05;94218.41;;;18.69;38.88
56831;BME280;42713;42.676;23.352;2023-04-24T11:22:36;94223.03;;;18.54;38.95
56831;BME280;42713;42.676;23.352;2023-04-24T11:25:03;94241.97;;;18.39;38.64
56831;BME280;42713;42.676;23.352;2023-04-24T11:27:31;94260.91;;;18.23;38.99
56831;BME280;42713;42.676;23.352;2023-04-24T11:32:27;94275.25;;;17.71;44.44
56831;BME280;42713;42.676;23.352;2023-04-24T11:35:17;94283.47;;;17.33;46.62
56831;BME280;42713;42.676;23.352;2023-04-24T11:37:45;94276.22;;;16.97;49.09
56831;BME280;42713;42.676;23.352;2023-04-24T11:40:13;94280.03;;;17.05;47.66
56831;BME280;42713;42.676;23.352;2023-04-24T11:42:45;94270.56;;;17.04;48.74
56831;BME280;42713;42.676;23.352;2023-04-24T11:45:13;94267.31;;;17.07;48.40
56831;BME280;42713;42.676;23.352;2023-04-24T11:47:39;94258.59;;;17.06;46.26
56831;BME280;42713;42.676;23.352;2023-04-24T11:50:08;94262.63;;;17.04;44.39
56831;BME280;42713;42.676;23.352;2023-04-24T11:52:38;94258.47;;;17.11;45.59
56831;BME280;42713;42.676;23.352;2023-04-24T11:55:06;94255.53;;;17.27;44.40
56831;BME280;42713;42.676;23.352;2023-04-24T11:57:32;94242.69;;;17.34;45.24
56831;BME280;42713;42.676;23.352;2023-04-24T12:00:04;94234.72;;;17.48;43.99
56831;BME280;42713;42.676;23.352;2023-04-24T12:02:33;94231.09;;;17.58;44.45
56831;BME280;42713;42.676;23.352;2023-04-24T12:04:58;94229.75;;;17.69;43.65
56831;BME280;42713;42.676;23.352;2023-04-24T12:07:24;94237.38;;;17.85;43.27
56831;BME280;42713;42.676;23.352;2023-04-24T12:09:58;94226.66;;;17.90;42.42
56831;BME280;42713;42.676;23.352;2023-04-24T12:12:27;94230.56;;;18.07;41.89
56831;BME280;42713;42.676;23.352;2023-04-24T12:14:56;94216.91;;;18.22;41.34
56831;BME280;42713;42.676;23.352;2023-04-24T12:17:30;94209.38;;;18.38;41.36
56831;BME280;42713;42.676;23.352;2023-04-24T12:22:25;94220.53;;;18.58;41.49
56831;BME280;42713;42.676;23.352;2023-04-24T12:25:02;94214.13;;;18.27;41.14
56831;BME280;42713;42.676;23.352;2023-04-24T12:27:34;94208.78;;;18.41;41.76
56831;BME280;42713;42.676;23.352;2023-04-24T12:30:00;94209.41;;;18.47;40.59
56831;BME280;42713;42.676;23.352;2023-04-24T12:32:27;94198.09;;;18.32;39.77
56831;BME280;42713;42.676;23.352;2023-04-24T12:34:53;94192.63;;;18.29;39.90
56831;BME280;42713;42.676;23.352;2023-04-24T12:37:19;94180.53;;;18.37;40.28
56831;BME280;42713;42.676;23.352;2023-04-24T12:40:06;94177.13;;;18.45;39.97
56831;BME280;42713;42.676;23.352;2023-04-24T12:42:32;94173.72;;;18.53;39.93
56831;BME280;42713;42.676;23.352;2023-04-24T12:45:00;94181.09;;;18.65;40.11
56831;BME280;42713;42.676;23.352;2023-04-24T12:47:27;94167.34;;;18.63;40.27
56831;BME280;42713;42.676;23.352;2023-04-24T12:49:54;94169.88;;;18.68;40.46
56831;BME280;42713;42.676;23.352;2023-04-24T12:52:21;94163.06;;;18.76;39.99
56831;BME280;42713;42.676;23.352;2023-04-24T12:54:47;94159.28;;;18.77;39.25
56831;BME280;42713;42.676;23.352;2023-04-24T12:57:13;94142.53;;;18.99;39.48